createdAt,value
2018-08-30T00:00:15.298Z,0
2018-08-30T00:01:15.293Z,0
2018-08-30T00:02:15.541Z,0
2018-08-30T00:03:15.297Z,0
2018-08-30T00:04:15.032Z,0
2018-08-30T00:05:15.528Z,0
2018-08-30T00:06:15.272Z,0
2018-08-30T00:07:15.520Z,0
2018-08-30T00:08:15.535Z,0
2018-08-30T00:09:15.511Z,0
2018-08-30T00:10:15.508Z,0
2018-08-30T00:11:15.251Z,0
2018-08-30T00:12:15.499Z,0
2018-08-30T00:13:14.746Z,0
2018-08-30T00:14:15.491Z,0
2018-08-30T00:15:15.491Z,0
2018-08-30T00:16:15.229Z,0
2018-08-30T00:17:15.477Z,0
2018-08-30T00:18:15.221Z,0
2018-08-30T00:19:15.220Z,0
2018-08-30T00:20:15.476Z,0
2018-08-30T00:21:15.459Z,0
2018-08-30T00:22:15.460Z,0
2018-08-30T00:23:15.452Z,0
2018-08-30T00:24:15.449Z,0
2018-08-30T00:25:15.442Z,0
2018-08-30T00:26:15.436Z,0
2018-08-30T00:27:15.437Z,0
2018-08-30T00:28:15.179Z,0
2018-08-30T00:29:15.423Z,0
2018-08-30T00:30:15.224Z,0
2018-08-30T00:31:15.420Z,0
2018-08-30T00:32:15.412Z,0
2018-08-30T00:33:15.157Z,0
2018-08-30T00:34:15.416Z,0
2018-08-30T00:35:15.399Z,0
2018-08-30T00:36:15.394Z,0
2018-08-30T00:37:15.390Z,0
2018-08-30T00:38:15.146Z,0
2018-08-30T00:39:15.129Z,0
2018-08-30T00:40:15.385Z,0
2018-08-30T00:41:15.504Z,0
2018-08-30T00:42:15.377Z,0
2018-08-30T00:43:14.865Z,0
2018-08-30T00:44:15.361Z,0
2018-08-30T00:45:15.367Z,0
2018-08-30T00:46:15.353Z,0
2018-08-30T00:47:15.347Z,0
2018-08-30T00:48:15.350Z,0
2018-08-30T00:49:15.342Z,0
2018-08-30T00:50:15.340Z,0
2018-08-30T00:51:15.333Z,0
2018-08-30T00:52:15.324Z,0
2018-08-30T00:53:15.328Z,0
2018-08-30T00:54:17.199Z,0
2018-08-30T00:55:15.316Z,0
2018-08-30T00:56:15.308Z,0
2018-08-30T00:57:15.051Z,0
2018-08-30T00:58:15.047Z,0
2018-08-30T00:59:15.038Z,0
2018-08-30T01:00:15.287Z,0
2018-08-30T01:01:18.846Z,0
2018-08-30T01:02:15.027Z,0
2018-08-30T01:03:15.022Z,0
2018-08-30T01:04:15.026Z,0
2018-08-30T01:05:14.510Z,0
2018-08-30T01:06:15.262Z,0
2018-08-30T01:07:16.531Z,0
2018-08-30T01:08:15.247Z,0
2018-08-30T01:09:15.245Z,0
2018-08-30T01:10:15.245Z,0
2018-08-30T01:11:40.906Z,0
2018-08-30T01:12:14.982Z,0
2018-08-30T01:13:15.228Z,0
2018-08-30T01:14:19.187Z,0
2018-08-30T01:15:15.218Z,0
2018-08-30T01:16:15.212Z,0
2018-08-30T01:17:18.167Z,0
2018-08-30T01:18:14.953Z,0
2018-08-30T01:19:14.946Z,0
2018-08-30T01:20:15.193Z,0
2018-08-30T01:21:15.187Z,0
2018-08-30T01:22:15.186Z,0
2018-08-30T01:23:15.180Z,0
2018-08-30T01:24:15.177Z,0
2018-08-30T01:25:15.175Z,0
2018-08-30T01:26:15.169Z,0
2018-08-30T01:27:15.167Z,0
2018-08-30T01:28:15.157Z,0
2018-08-30T01:29:15.153Z,0
2018-08-30T01:30:15.147Z,0
2018-08-30T01:31:14.888Z,0
2018-08-30T01:32:14.646Z,0
2018-08-30T01:33:15.130Z,0
2018-08-30T01:34:15.125Z,0
2018-08-30T01:35:15.130Z,0
2018-08-30T01:36:15.115Z,0
2018-08-30T01:37:15.123Z,0
2018-08-30T01:38:15.109Z,0
2018-08-30T01:39:14.858Z,0
2018-08-30T01:40:14.847Z,0
2018-08-30T01:41:14.845Z,0
2018-08-30T01:42:14.589Z,0
2018-08-30T01:43:15.092Z,0
2018-08-30T01:44:15.082Z,0
2018-08-30T01:45:14.827Z,0
2018-08-30T01:46:15.070Z,0
2018-08-30T01:47:15.070Z,0
2018-08-30T01:48:14.555Z,0
2018-08-30T01:49:15.077Z,0
2018-08-30T01:50:15.051Z,0
2018-08-30T01:51:15.045Z,0
2018-08-30T01:52:15.040Z,0
2018-08-30T01:53:15.035Z,0
2018-08-30T01:54:15.038Z,0
2018-08-30T01:55:15.026Z,0
2018-08-30T01:56:14.773Z,0
2018-08-30T01:57:14.513Z,0
2018-08-30T01:58:15.014Z,0
2018-08-30T01:59:15.005Z,0
2018-08-30T02:00:14.749Z,0
2018-08-30T02:01:14.999Z,0
2018-08-30T02:02:14.995Z,0
2018-08-30T02:03:14.987Z,0
2018-08-30T02:04:14.732Z,0
2018-08-30T02:05:14.979Z,0
2018-08-30T02:06:14.723Z,0
2018-08-30T02:07:14.720Z,0
2018-08-30T02:08:14.459Z,0
2018-08-30T02:09:14.958Z,0
2018-08-30T02:10:14.456Z,0
2018-08-30T02:11:14.946Z,0
2018-08-30T02:12:14.692Z,0
2018-08-30T02:13:14.940Z,0
2018-08-30T02:14:14.679Z,0
2018-08-30T02:15:14.680Z,0
2018-08-30T02:16:14.976Z,0
2018-08-30T02:17:14.665Z,0
2018-08-30T02:18:14.909Z,0
2018-08-30T02:19:14.661Z,0
2018-08-30T02:20:14.911Z,0
2018-08-30T02:21:14.902Z,0
2018-08-30T02:22:14.644Z,0
2018-08-30T02:23:14.894Z,0
2018-08-30T02:24:14.632Z,0
2018-08-30T02:25:14.626Z,0
2018-08-30T02:26:14.623Z,0
2018-08-30T02:27:14.876Z,0
2018-08-30T02:28:14.912Z,0
2018-08-30T02:29:14.608Z,0
2018-08-30T02:30:14.606Z,0
2018-08-30T02:31:14.599Z,0
2018-08-30T02:32:14.844Z,0
2018-08-30T02:33:14.837Z,0
2018-08-30T02:34:14.830Z,0
2018-08-30T02:35:14.829Z,0
2018-08-30T02:36:14.822Z,0
2018-08-30T02:37:14.819Z,0
2018-08-30T02:38:14.812Z,0
2018-08-30T02:39:14.822Z,0
2018-08-30T02:40:14.802Z,0
2018-08-30T02:41:14.797Z,0
2018-08-30T02:42:14.803Z,0
2018-08-30T02:43:14.595Z,0
2018-08-30T02:44:14.792Z,0
2018-08-30T02:45:14.775Z,0
2018-08-30T02:46:14.770Z,0
2018-08-30T02:47:14.770Z,0
2018-08-30T02:48:14.763Z,0
2018-08-30T02:49:14.952Z,0
2018-08-30T02:50:14.763Z,0
2018-08-30T02:51:14.753Z,0
2018-08-30T02:52:14.742Z,0
2018-08-30T02:53:14.737Z,0
2018-08-30T02:54:14.729Z,0
2018-08-30T02:55:14.735Z,0
2018-08-30T02:56:14.729Z,0
2018-08-30T02:57:14.723Z,0
2018-08-30T02:58:14.712Z,0
2018-08-30T02:59:14.709Z,0
2018-08-30T03:00:14.697Z,0
2018-08-30T03:01:14.446Z,0
2018-08-30T03:02:14.698Z,0
2018-08-30T03:03:14.682Z,0
2018-08-30T03:04:14.422Z,0
2018-08-30T03:05:14.438Z,0
2018-08-30T03:06:14.666Z,0
2018-08-30T03:07:14.659Z,0
2018-08-30T03:08:14.657Z,0
2018-08-30T03:09:14.640Z,0
2018-08-30T03:10:14.389Z,0
2018-08-30T03:11:14.634Z,0
2018-08-30T03:12:14.374Z,0
2018-08-30T03:13:14.614Z,0
2018-08-30T03:14:14.612Z,0
2018-08-30T03:15:14.614Z,0
2018-08-30T03:16:14.360Z,0
2018-08-30T03:17:14.594Z,0
2018-08-30T03:18:14.087Z,0
2018-08-30T03:19:14.335Z,0
2018-08-30T03:20:14.330Z,0
2018-08-30T03:21:14.574Z,0
2018-08-30T03:22:14.579Z,0
2018-08-30T03:23:14.317Z,0
2018-08-30T03:24:14.311Z,0
2018-08-30T03:25:14.552Z,0
2018-08-30T03:26:14.545Z,0
2018-08-30T03:27:14.546Z,0
2018-08-30T03:28:14.288Z,0
2018-08-30T03:29:14.528Z,0
2018-08-30T03:30:14.649Z,0
2018-08-30T03:31:14.939Z,0
2018-08-30T03:32:14.536Z,0
2018-08-30T03:33:14.510Z,0
2018-08-30T03:34:14.524Z,0
2018-08-30T03:35:14.532Z,0
2018-08-30T03:36:14.508Z,4
2018-08-30T03:37:14.494Z,4
2018-08-30T03:38:14.230Z,0
2018-08-30T03:39:14.476Z,4
2018-08-30T03:40:14.474Z,4
2018-08-30T03:41:14.469Z,4
2018-08-30T03:42:14.470Z,4
2018-08-30T03:43:14.479Z,4
2018-08-30T03:44:14.226Z,8
2018-08-30T03:45:14.453Z,8
2018-08-30T03:46:14.444Z,8
2018-08-30T03:47:14.549Z,12
2018-08-30T03:48:33.629Z,12
2018-08-30T03:49:14.424Z,12
2018-08-30T03:50:14.416Z,20
2018-08-30T03:51:14.411Z,20
2018-08-30T03:52:15.901Z,24
2018-08-30T03:54:14.150Z,32
2018-08-30T03:55:14.410Z,32
2018-08-30T03:56:14.391Z,40
2018-08-30T03:57:14.385Z,44
2018-08-30T03:58:14.382Z,56
2018-08-30T03:59:14.370Z,60
2018-08-30T04:00:14.372Z,72
2018-08-30T04:01:14.365Z,84
2018-08-30T04:02:14.398Z,96
2018-08-30T04:03:14.344Z,104
2018-08-30T04:04:18.227Z,116
2018-08-30T04:05:14.334Z,128
2018-08-30T04:06:14.077Z,136
2018-08-30T04:07:14.320Z,152
2018-08-30T04:08:14.319Z,164
2018-08-30T04:09:14.309Z,176
2018-08-30T04:10:14.057Z,192
2018-08-30T04:11:14.057Z,208
2018-08-30T04:12:14.299Z,228
2018-08-30T04:13:16.848Z,252
2018-08-30T04:14:14.288Z,272
2018-08-30T04:15:14.280Z,300
2018-08-30T04:16:14.279Z,324
2018-08-30T04:17:14.271Z,352
2018-08-30T04:18:14.016Z,384
2018-08-30T04:19:14.255Z,420
2018-08-30T04:20:14.254Z,452
2018-08-30T04:21:13.998Z,496
2018-08-30T04:22:14.278Z,564
2018-08-30T04:23:14.242Z,632
2018-08-30T04:24:14.231Z,704
2018-08-30T04:25:13.971Z,760
2018-08-30T04:26:13.972Z,804
2018-08-30T04:27:14.209Z,864
2018-08-30T04:28:14.208Z,948
2018-08-30T04:29:14.207Z,1048
2018-08-30T04:30:14.198Z,1152
2018-08-30T04:31:13.938Z,1240
2018-08-30T04:32:14.185Z,1324
2018-08-30T04:33:13.931Z,1368
2018-08-30T04:34:14.174Z,1468
2018-08-30T04:35:13.922Z,1576
2018-08-30T04:36:13.937Z,1688
2018-08-30T04:37:13.922Z,1796
2018-08-30T04:38:13.914Z,1896
2018-08-30T04:39:14.159Z,2004
2018-08-30T04:40:13.908Z,2168
2018-08-30T04:41:14.161Z,2376
2018-08-30T04:42:14.279Z,2560
2018-08-30T04:43:14.145Z,2720
2018-08-30T04:44:14.135Z,2884
2018-08-30T04:45:14.133Z,3040
2018-08-30T04:46:14.127Z,3188
2018-08-30T04:47:13.868Z,3304
2018-08-30T04:48:14.116Z,3420
2018-08-30T04:49:14.114Z,3504
2018-08-30T04:50:14.443Z,3596
2018-08-30T04:51:13.863Z,3688
2018-08-30T04:52:13.592Z,3828
2018-08-30T04:53:13.837Z,4008
2018-08-30T04:54:13.834Z,4180
2018-08-30T04:55:13.839Z,4176
2018-08-30T04:56:14.077Z,4132
2018-08-30T04:57:13.822Z,4188
2018-08-30T04:58:13.567Z,4280
2018-08-30T04:59:14.075Z,4340
2018-08-30T05:00:13.806Z,4396
2018-08-30T05:01:14.057Z,4472
2018-08-30T05:02:13.796Z,4592
2018-08-30T05:03:13.797Z,4716
2018-08-30T05:04:13.542Z,4896
2018-08-30T05:05:14.050Z,5140
2018-08-30T05:06:13.783Z,5464
2018-08-30T05:07:13.776Z,5624
2018-08-30T05:08:14.032Z,5960
2018-08-30T05:09:14.021Z,6160
2018-08-30T05:10:14.427Z,6224
2018-08-30T05:11:13.510Z,6408
2018-08-30T05:12:13.764Z,6612
2018-08-30T05:13:13.503Z,6612
2018-08-30T05:14:14.016Z,6760
2018-08-30T05:15:13.999Z,7112
2018-08-30T05:16:13.746Z,7620
2018-08-30T05:17:13.999Z,7764
2018-08-30T05:18:13.993Z,7760
2018-08-30T05:19:13.988Z,7616
2018-08-30T05:20:13.767Z,7624
2018-08-30T05:21:13.980Z,7728
2018-08-30T05:22:13.979Z,7912
2018-08-30T05:23:14.733Z,8012
2018-08-30T05:24:13.725Z,8092
2018-08-30T05:25:13.972Z,8516
2018-08-30T05:26:13.982Z,9300
2018-08-30T05:27:14.987Z,9400
2018-08-30T05:28:13.712Z,10220
2018-08-30T05:29:13.711Z,10912
2018-08-30T05:30:13.966Z,11256
2018-08-30T05:31:13.969Z,11728
2018-08-30T05:32:13.959Z,11508
2018-08-30T05:33:13.954Z,9288
2018-08-30T05:34:13.952Z,9148
2018-08-30T05:35:13.697Z,9156
2018-08-30T05:36:13.707Z,9192
2018-08-30T05:37:14.000Z,9244
2018-08-30T05:38:13.695Z,11216
2018-08-30T05:39:13.696Z,12048
2018-08-30T05:40:13.704Z,12156
2018-08-30T05:41:13.688Z,11792
2018-08-30T05:42:13.689Z,11492
2018-08-30T05:43:13.950Z,11184
2018-08-30T05:44:13.690Z,7972
2018-08-30T05:45:13.688Z,9032
2018-08-30T05:46:13.435Z,8816
2018-08-30T05:47:13.943Z,8536
2018-08-30T05:48:13.944Z,6708
2018-08-30T05:49:13.940Z,5584
2018-08-30T05:50:13.689Z,5604
2018-08-30T05:51:13.695Z,4820
2018-08-30T05:52:13.692Z,4924
2018-08-30T05:53:13.947Z,4344
2018-08-30T05:54:13.439Z,3912
2018-08-30T05:55:13.690Z,3808
2018-08-30T05:56:13.689Z,3700
2018-08-30T05:57:13.948Z,3652
2018-08-30T05:58:13.948Z,3696
2018-08-30T05:59:13.949Z,3768
2018-08-30T06:00:13.690Z,3904
2018-08-30T06:01:13.955Z,4784
2018-08-30T06:02:13.953Z,4544
2018-08-30T06:03:13.943Z,4364
2018-08-30T06:04:13.701Z,4508
2018-08-30T06:05:13.441Z,4800
2018-08-30T06:06:13.698Z,5284
2018-08-30T06:07:13.790Z,6008
2018-08-30T06:08:14.027Z,7024
2018-08-30T06:09:13.958Z,7908
2018-08-30T06:10:13.958Z,8868
2018-08-30T06:11:13.949Z,9880
2018-08-30T06:12:13.953Z,10724
2018-08-30T06:13:14.165Z,11636
2018-08-30T06:14:13.956Z,13328
2018-08-30T06:15:13.955Z,12512
2018-08-30T06:16:13.942Z,14336
2018-08-30T06:17:13.938Z,15424
2018-08-30T06:18:13.689Z,12024
2018-08-30T06:19:13.690Z,11300
2018-08-30T06:20:13.950Z,11300
2018-08-30T06:21:13.945Z,11484
2018-08-30T06:22:13.437Z,11556
2018-08-30T06:23:13.693Z,11524
2018-08-30T06:24:13.691Z,11068
2018-08-30T06:25:13.699Z,10504
2018-08-30T06:26:13.694Z,9924
2018-08-30T06:27:13.947Z,9480
2018-08-30T06:28:13.706Z,9008
2018-08-30T06:29:13.780Z,8836
2018-08-30T06:30:13.691Z,9164
2018-08-30T06:31:13.439Z,9792
2018-08-30T06:32:13.691Z,10392
2018-08-30T06:33:13.943Z,10796
2018-08-30T06:34:13.546Z,10936
2018-08-30T06:35:14.146Z,10692
2018-08-30T06:36:13.695Z,10284
2018-08-30T06:37:13.951Z,9864
2018-08-30T06:38:13.947Z,9576
2018-08-30T06:39:13.697Z,9404
2018-08-30T06:40:13.446Z,9316
2018-08-30T06:41:13.943Z,9248
2018-08-30T06:42:13.952Z,8952
2018-08-30T06:43:13.949Z,8388
2018-08-30T06:44:13.691Z,7928
2018-08-30T06:45:14.199Z,7500
2018-08-30T06:46:13.440Z,7236
2018-08-30T06:47:13.950Z,7192
2018-08-30T06:48:13.693Z,7288
2018-08-30T06:49:14.096Z,7464
2018-08-30T06:50:13.442Z,7656
2018-08-30T06:51:13.692Z,7832
2018-08-30T06:52:13.692Z,8052
2018-08-30T06:53:13.695Z,8312
2018-08-30T06:54:13.944Z,8564
2018-08-30T06:55:13.696Z,8736
2018-08-30T06:56:13.864Z,8788
2018-08-30T06:57:13.943Z,8676
2018-08-30T06:58:13.940Z,8520
2018-08-30T06:59:13.692Z,8356
2018-08-30T07:00:13.691Z,8260
2018-08-30T07:01:13.937Z,8264
2018-08-30T07:02:13.940Z,8392
2018-08-30T07:03:13.690Z,8428
2018-08-30T07:04:14.380Z,8396
2018-08-30T07:05:13.946Z,8412
2018-08-30T07:06:13.692Z,8496
2018-08-30T07:07:13.938Z,8748
2018-08-30T07:08:14.345Z,9044
2018-08-30T07:09:13.933Z,9340
2018-08-30T07:10:13.680Z,9580
2018-08-30T07:11:13.943Z,9792
2018-08-30T07:12:13.937Z,10100
2018-08-30T07:13:13.933Z,10476
2018-08-30T07:14:13.687Z,10716
2018-08-30T07:15:13.880Z,10904
2018-08-30T07:16:14.184Z,11068
2018-08-30T07:17:13.931Z,11152
2018-08-30T07:18:13.931Z,11052
2018-08-30T07:19:13.940Z,11012
2018-08-30T07:20:13.926Z,10908
2018-08-30T07:21:14.363Z,10784
2018-08-30T07:22:13.669Z,10680
2018-08-30T07:23:13.673Z,10348
2018-08-30T07:24:14.042Z,9840
2018-08-30T07:25:13.670Z,9400
2018-08-30T07:26:13.925Z,8976
2018-08-30T07:27:13.417Z,8548
2018-08-30T07:28:13.667Z,8092
2018-08-30T07:29:13.417Z,7956
2018-08-30T07:30:13.918Z,8168
2018-08-30T07:31:13.912Z,8260
2018-08-30T07:32:13.666Z,7500
2018-08-30T07:33:13.922Z,6580
2018-08-30T07:34:14.101Z,6176
2018-08-30T07:35:14.362Z,6120
2018-08-30T07:36:13.911Z,6204
2018-08-30T07:37:13.657Z,6328
2018-08-30T07:38:13.912Z,6444
2018-08-30T07:39:13.911Z,6544
2018-08-30T07:40:13.911Z,6576
2018-08-30T07:41:13.910Z,6696
2018-08-30T07:42:13.911Z,6912
2018-08-30T07:43:13.402Z,7272
2018-08-30T07:44:14.228Z,7440
2018-08-30T07:45:13.653Z,7444
2018-08-30T07:46:13.655Z,7456
2018-08-30T07:47:14.259Z,7700
2018-08-30T07:48:13.902Z,8404
2018-08-30T07:49:13.902Z,9272
2018-08-30T07:50:13.907Z,10020
2018-08-30T07:51:13.393Z,10536
2018-08-30T07:52:13.643Z,10976
2018-08-30T07:53:13.899Z,11264
2018-08-30T07:54:13.664Z,11312
2018-08-30T07:55:13.893Z,11296
2018-08-30T07:56:13.894Z,11160
2018-08-30T07:57:13.722Z,10980
2018-08-30T07:58:13.892Z,10748
2018-08-30T07:59:13.632Z,10596
2018-08-30T08:00:14.265Z,10436
2018-08-30T08:01:13.635Z,10388
2018-08-30T08:02:13.890Z,10540
2018-08-30T08:03:13.642Z,10928
2018-08-30T08:04:13.881Z,11392
2018-08-30T08:05:13.630Z,11476
2018-08-30T08:06:14.218Z,11180
2018-08-30T08:07:14.157Z,10688
2018-08-30T08:08:13.877Z,10044
2018-08-30T08:09:13.882Z,9444
2018-08-30T08:10:13.873Z,8812
2018-08-30T08:11:13.884Z,8780
2018-08-30T08:12:13.120Z,8956
2018-08-30T08:13:13.894Z,8916
2018-08-30T08:14:13.929Z,8728
2018-08-30T08:15:13.620Z,8384
2018-08-30T08:16:13.872Z,8192
2018-08-30T08:17:13.871Z,8112
2018-08-30T08:18:14.122Z,8120
2018-08-30T08:19:14.327Z,8312
2018-08-30T08:20:13.872Z,8536
2018-08-30T08:21:13.617Z,8808
2018-08-30T08:22:13.866Z,9052
2018-08-30T08:23:13.613Z,9220
2018-08-30T08:24:13.609Z,9296
2018-08-30T08:25:13.940Z,9292
2018-08-30T08:26:13.607Z,9272
2018-08-30T08:27:13.609Z,9300
2018-08-30T08:28:13.605Z,9376
2018-08-30T08:29:13.854Z,9632
2018-08-30T08:30:13.613Z,9884
2018-08-30T08:31:13.705Z,10668
2018-08-30T08:32:13.866Z,11628
2018-08-30T08:33:13.851Z,12908
2018-08-30T08:34:13.598Z,13560
2018-08-30T08:35:13.604Z,14080
2018-08-30T08:36:13.600Z,14264
2018-08-30T08:37:13.611Z,13928
2018-08-30T08:38:13.848Z,13780
2018-08-30T08:39:13.848Z,13448
2018-08-30T08:40:13.595Z,13172
2018-08-30T08:41:13.847Z,12988
2018-08-30T08:42:13.852Z,12888
2018-08-30T08:43:13.586Z,12732
2018-08-30T08:44:13.847Z,12536
2018-08-30T08:45:13.840Z,12396
2018-08-30T08:46:13.588Z,12288
2018-08-30T08:47:13.839Z,12124
2018-08-30T08:48:13.846Z,11856
2018-08-30T08:49:14.089Z,11528
2018-08-30T08:50:13.586Z,11172
2018-08-30T08:51:14.103Z,10800
2018-08-30T08:52:13.836Z,10656
2018-08-30T08:53:13.582Z,10704
2018-08-30T08:54:13.840Z,10384
2018-08-30T08:55:13.580Z,10004
2018-08-30T08:56:13.579Z,9068
2018-08-30T08:57:13.330Z,9176
2018-08-30T08:58:13.829Z,9384
2018-08-30T08:59:14.077Z,9396
2018-08-30T09:00:13.832Z,8660
2018-08-30T09:01:13.597Z,8232
2018-08-30T09:02:13.826Z,10000
2018-08-30T09:03:13.579Z,10568
2018-08-30T09:04:13.844Z,10004
2018-08-30T09:05:13.821Z,10296
2018-08-30T09:06:13.820Z,10036
2018-08-30T09:07:14.129Z,10608
2018-08-30T09:08:13.818Z,10412
2018-08-30T09:09:13.811Z,10184
2018-08-30T09:10:13.813Z,11540
2018-08-30T09:11:13.812Z,11876
2018-08-30T09:12:13.814Z,10932
2018-08-30T09:13:13.565Z,10572
2018-08-30T09:14:13.807Z,9968
2018-08-30T09:15:13.553Z,8980
2018-08-30T09:16:13.808Z,9044
2018-08-30T09:17:13.820Z,9596
2018-08-30T09:18:13.883Z,8216
2018-08-30T09:19:13.800Z,9064
2018-08-30T09:20:13.545Z,10604
2018-08-30T09:21:13.805Z,11544
2018-08-30T09:22:13.803Z,11308
2018-08-30T09:23:14.003Z,11708
2018-08-30T09:24:13.542Z,11648
2018-08-30T09:25:13.541Z,11828
2018-08-30T09:26:13.793Z,11624
2018-08-30T09:27:13.896Z,11512
2018-08-30T09:28:13.796Z,11572
2018-08-30T09:29:13.789Z,11436
2018-08-30T09:30:13.534Z,11428
2018-08-30T09:31:14.070Z,11928
2018-08-30T09:32:13.783Z,12020
2018-08-30T09:33:13.528Z,11916
2018-08-30T09:34:13.539Z,11772
2018-08-30T09:35:13.526Z,11644
2018-08-30T09:36:13.273Z,11568
2018-08-30T09:37:13.523Z,11536
2018-08-30T09:38:13.538Z,11512
2018-08-30T09:39:13.521Z,11496
2018-08-30T09:40:13.768Z,11472
2018-08-30T09:41:13.516Z,11624
2018-08-30T09:42:13.515Z,11840
2018-08-30T09:43:13.767Z,11924
2018-08-30T09:44:13.764Z,11868
2018-08-30T09:45:13.764Z,11524
2018-08-30T09:46:13.507Z,11316
2018-08-30T09:47:13.758Z,12328
2018-08-30T09:48:13.761Z,13268
2018-08-30T09:49:13.553Z,13124
2018-08-30T09:50:13.752Z,12508
2018-08-30T09:51:13.503Z,11244
2018-08-30T09:52:13.251Z,10280
2018-08-30T09:53:13.751Z,10548
2018-08-30T09:54:13.755Z,9764
2018-08-30T09:55:13.747Z,8920
2018-08-30T09:56:13.240Z,8480
2018-08-30T09:57:15.058Z,7816
2018-08-30T09:58:13.495Z,7940
2018-08-30T09:59:13.743Z,8500
2018-08-30T10:00:13.236Z,8556
2018-08-30T10:01:13.489Z,8204
2018-08-30T10:02:13.487Z,8044
2018-08-30T10:03:13.735Z,7880
2018-08-30T10:04:13.736Z,8176
2018-08-30T10:05:13.860Z,7924
2018-08-30T10:06:13.734Z,7272
2018-08-30T10:07:13.476Z,6772
2018-08-30T10:08:13.729Z,7308
2018-08-30T10:09:13.748Z,8348
2018-08-30T10:10:13.723Z,8912
2018-08-30T10:11:13.724Z,9464
2018-08-30T10:12:13.469Z,10092
2018-08-30T10:13:13.466Z,10768
2018-08-30T10:14:13.470Z,11356
2018-08-30T10:15:13.475Z,12344
2018-08-30T10:16:13.718Z,12772
2018-08-30T10:17:13.472Z,12760
2018-08-30T10:18:13.715Z,12804
2018-08-30T10:19:13.724Z,11588
2018-08-30T10:20:13.456Z,10604
2018-08-30T10:21:13.715Z,10444
2018-08-30T10:22:13.456Z,9176
2018-08-30T10:23:13.712Z,10076
2018-08-30T10:24:13.710Z,10544
2018-08-30T10:25:13.765Z,9480
2018-08-30T10:26:13.709Z,8652
2018-08-30T10:27:13.447Z,7148
2018-08-30T10:28:13.704Z,6408
2018-08-30T10:29:13.724Z,5980
2018-08-30T10:30:13.695Z,6604
2018-08-30T10:31:13.448Z,7996
2018-08-30T10:32:13.441Z,9576
2018-08-30T10:33:13.440Z,10164
2018-08-30T10:34:13.689Z,8708
2018-08-30T10:35:13.692Z,8500
2018-08-30T10:36:13.692Z,8684
2018-08-30T10:37:13.558Z,8580
2018-08-30T10:38:13.689Z,8980
2018-08-30T10:39:13.186Z,9432
2018-08-30T10:40:13.435Z,9708
2018-08-30T10:41:13.681Z,10128
2018-08-30T10:42:13.689Z,10680
2018-08-30T10:43:13.687Z,10868
2018-08-30T10:44:13.724Z,12232
2018-08-30T10:45:13.431Z,12732
2018-08-30T10:46:13.676Z,11260
2018-08-30T10:47:13.689Z,9284
2018-08-30T10:48:13.679Z,9500
2018-08-30T10:49:13.425Z,12608
2018-08-30T10:50:13.432Z,14932
2018-08-30T10:51:13.674Z,15832
2018-08-30T10:52:13.428Z,15320
2018-08-30T10:53:13.677Z,13068
2018-08-30T10:54:13.918Z,9940
2018-08-30T10:55:13.668Z,7440
2018-08-30T10:56:13.212Z,6248
2018-08-30T10:57:13.416Z,5884
2018-08-30T10:58:13.511Z,5272
2018-08-30T10:59:13.673Z,5372
2018-08-30T11:00:12.913Z,7964
2018-08-30T11:01:13.442Z,10840
2018-08-30T11:02:13.697Z,10988
2018-08-30T11:03:13.412Z,10764
2018-08-30T11:04:14.188Z,13048
2018-08-30T11:05:13.411Z,14732
2018-08-30T11:06:13.409Z,12728
2018-08-30T11:07:13.432Z,9676
2018-08-30T11:08:13.747Z,8648
2018-08-30T11:09:13.744Z,9596
2018-08-30T11:10:13.409Z,10064
2018-08-30T11:11:13.713Z,9704
2018-08-30T11:12:13.403Z,8228
2018-08-30T11:13:14.414Z,6924
2018-08-30T11:14:13.404Z,6168
2018-08-30T11:15:13.407Z,5996
2018-08-30T11:16:13.696Z,5336
2018-08-30T11:17:13.151Z,5224
2018-08-30T11:18:13.655Z,5792
2018-08-30T11:19:13.656Z,6532
2018-08-30T11:20:13.662Z,6604
2018-08-30T11:21:13.651Z,7300
2018-08-30T11:22:13.646Z,7696
2018-08-30T11:23:13.396Z,7008
2018-08-30T11:24:13.648Z,5684
2018-08-30T11:25:13.902Z,7148
2018-08-30T11:26:13.648Z,7972
2018-08-30T11:27:13.402Z,8896
2018-08-30T11:28:13.641Z,6564
2018-08-30T11:29:13.640Z,6192
2018-08-30T11:30:13.387Z,7892
2018-08-30T11:31:13.649Z,11240
2018-08-30T11:32:13.641Z,10676
2018-08-30T11:33:13.398Z,12240
2018-08-30T11:34:13.383Z,13920
2018-08-30T11:35:13.129Z,12764
2018-08-30T11:36:13.432Z,12496
2018-08-30T11:37:13.631Z,11880
2018-08-30T11:38:13.634Z,9808
2018-08-30T11:39:13.125Z,7648
2018-08-30T11:40:13.383Z,7360
2018-08-30T11:41:13.749Z,4980
2018-08-30T11:42:13.657Z,5676
2018-08-30T11:43:13.465Z,8408
2018-08-30T11:44:13.373Z,6380
2018-08-30T11:45:13.677Z,8524
2018-08-30T11:46:13.370Z,10856
2018-08-30T11:47:13.621Z,12600
2018-08-30T11:48:13.119Z,12476
2018-08-30T11:49:13.623Z,9848
2018-08-30T11:50:13.368Z,9788
2018-08-30T11:51:13.484Z,10072
2018-08-30T11:52:13.897Z,13316
2018-08-30T11:53:13.361Z,13480
2018-08-30T11:54:13.882Z,12324
2018-08-30T11:55:13.614Z,11372
2018-08-30T11:56:13.890Z,11252
2018-08-30T11:57:13.610Z,9256
2018-08-30T11:58:13.617Z,7328
2018-08-30T11:59:13.356Z,6696
2018-08-30T12:00:13.610Z,6832
2018-08-30T12:01:13.614Z,9236
2018-08-30T12:02:13.354Z,9796
2018-08-30T12:03:13.683Z,10764
2018-08-30T12:04:13.618Z,9776
2018-08-30T12:05:13.351Z,6760
2018-08-30T12:06:13.608Z,5468
2018-08-30T12:07:13.354Z,5160
2018-08-30T12:08:14.164Z,5556
2018-08-30T12:09:13.355Z,5800
2018-08-30T12:10:13.774Z,5696
2018-08-30T12:11:14.511Z,6140
2018-08-30T12:12:13.606Z,5276
2018-08-30T12:13:13.096Z,4692
2018-08-30T12:14:13.596Z,7084
2018-08-30T12:15:13.595Z,8568
2018-08-30T12:16:13.346Z,9204
2018-08-30T12:17:13.090Z,9656
2018-08-30T12:18:13.343Z,9700
2018-08-30T12:19:13.592Z,8740
2018-08-30T12:20:13.338Z,7708
2018-08-30T12:21:13.600Z,7092
2018-08-30T12:22:13.604Z,6312
2018-08-30T12:23:13.082Z,5572
2018-08-30T12:24:13.587Z,5276
2018-08-30T12:25:13.592Z,5764
2018-08-30T12:26:13.329Z,6616
2018-08-30T12:27:13.844Z,7008
2018-08-30T12:28:13.598Z,6832
2018-08-30T12:29:13.570Z,6684
2018-08-30T12:30:13.774Z,6384
2018-08-30T12:31:13.594Z,6256
2018-08-30T12:32:13.707Z,6080
2018-08-30T12:33:13.358Z,6004
2018-08-30T12:34:13.787Z,5980
2018-08-30T12:35:13.941Z,5640
2018-08-30T12:36:13.720Z,5384
2018-08-30T12:37:13.393Z,5292
2018-08-30T12:38:13.381Z,5060
2018-08-30T12:39:13.554Z,4972
2018-08-30T12:40:14.349Z,5268
2018-08-30T12:41:13.631Z,5748
2018-08-30T12:42:13.494Z,6404
2018-08-30T12:43:13.606Z,7012
2018-08-30T12:44:14.012Z,7416
2018-08-30T12:45:13.508Z,7896
2018-08-30T12:46:13.855Z,8368
2018-08-30T12:47:13.679Z,9020
2018-08-30T12:48:13.340Z,10048
2018-08-30T12:49:13.665Z,10792
2018-08-30T12:50:13.884Z,10528
2018-08-30T12:51:14.394Z,10272
2018-08-30T12:52:14.265Z,10552
2018-08-30T12:53:14.378Z,11836
2018-08-30T12:54:13.999Z,13584
2018-08-30T12:55:14.248Z,15564
2018-08-30T12:56:13.971Z,16736
2018-08-30T12:57:13.946Z,17888
2018-08-30T12:58:14.902Z,19072
2018-08-30T12:59:14.642Z,19328
2018-08-30T13:00:14.982Z,19232
2018-08-30T13:01:14.120Z,18720
2018-08-30T13:02:14.816Z,18176
2018-08-30T13:03:13.700Z,18272
2018-08-30T13:04:14.726Z,16160
2018-08-30T13:05:15.148Z,15164
2018-08-30T13:06:14.744Z,14408
2018-08-30T13:07:14.988Z,13880
2018-08-30T13:08:14.701Z,12468
2018-08-30T13:09:14.926Z,11312
2018-08-30T13:10:15.077Z,9736
2018-08-30T13:11:14.591Z,9760
2018-08-30T13:12:15.821Z,10144
2018-08-30T13:13:15.566Z,8516
2018-08-30T13:14:15.343Z,6816
2018-08-30T13:15:15.991Z,5632
2018-08-30T13:16:14.553Z,4164
2018-08-30T13:17:14.810Z,3588
2018-08-30T13:18:14.383Z,3572
2018-08-30T13:19:15.893Z,3724
2018-08-30T13:20:14.554Z,4500
2018-08-30T13:21:14.663Z,4288
2018-08-30T13:22:16.050Z,3364
2018-08-30T13:23:15.488Z,3000
2018-08-30T13:24:14.734Z,2840
2018-08-30T13:25:14.066Z,2844
2018-08-30T13:26:14.405Z,3848
2018-08-30T13:27:15.850Z,3952
2018-08-30T13:28:14.753Z,4236
2018-08-30T13:29:15.324Z,4784
2018-08-30T13:30:16.086Z,4756
2018-08-30T13:31:14.829Z,5728
2018-08-30T13:32:15.938Z,6416
2018-08-30T13:33:23.348Z,6732
2018-08-30T13:34:15.371Z,7664
2018-08-30T13:35:15.688Z,8648
2018-08-30T13:36:16.214Z,9704
2018-08-30T13:37:15.408Z,10676